In Rescue
 
Open Full Screen Window  High Contrast Mode
Wind Gusting 00 knots
08
March 19, 2019 6:48 PM EDT
Weather Information
Wind Direction
  230 °
Wind Speed
  08 kt (9 mph)
Wind Gust
  00 kt (0 mph)
Altimeter
30.33 in
Visibility
10 SM
Temperature
07° C
45° F
Dewpoint
-03° C
27° F
Humidity
49%
Sky Condition
Scattered @ 6,000 ft
VFR

METAR KDUH 192248Z AUTO 23008KT 10SM SCT060 07/M03 A3033 RMK AO2 T00721030

FAA Disclaimer: The data displayed is for advisory purposes only and is not to be used for flight planning or operations.